Regen! 0.3 mm/h

Letzte 24h
Datum & Zeit Temp. Luft-
feuchte
Wind Nieder-
schlag
Luftdruck Tendenz
IN OUT IN OUT Richtung Min. Max.
2021.05.11 03:57 19.3 °C 16.7 °C 45% 61% SO 129 ° 3 km/h 11 km/h 0.0 mm 1012.20 hPa langsam fallend
04:57 18.6 °C 16.6 °C 46% 60% OSO 124 ° 6 km/h 13 km/h 0.0 mm 1011.80 hPa langsam fallend
05:57 18.2 °C 16.0 °C 46% 63% OSO 108 ° 5 km/h 13 km/h 0.0 mm 1011.50 hPa langsam fallend
06:57 18.3 °C 17.9 °C 48% 55% SO 130 ° 7 km/h 17 km/h 0.0 mm 1011.50 hPa langsam fallend
07:57 19.6 °C 19.9 °C 51% 49% OSO 106 ° 8 km/h 17 km/h 0.0 mm 1011.30 hPa langsam fallend
08:57 21.5 °C 23.5 °C 49% 39% SO 139 ° 8 km/h 21 km/h 0.0 mm 1011.10 hPa langsam fallend
09:57 23.8 °C 24.6 °C 45% 35% OSO 121 ° 14 km/h 30 km/h 0.0 mm 1011.10 hPa langsam fallend
10:57 25.4 °C 27.1 °C 41% 25% OSO 106 ° 12 km/h 34 km/h 0.0 mm 1011.00 hPa langsam fallend
11:57 27.1 °C 27.4 °C 36% 25% SO 137 ° 16 km/h 36 km/h 0.0 mm 1010.60 hPa langsam fallend
12:57 27.8 °C 28.1 °C 32% 29% OSO 113 ° 21 km/h 40 km/h 0.0 mm 1010.50 hPa langsam fallend
13:57 28.8 °C 28.6 °C 32% 25% SO 124 ° 18 km/h 36 km/h 0.0 mm 1009.90 hPa langsam fallend
14:57 31.3 °C 28.4 °C 25% 24% O 90 ° 22 km/h 39 km/h 0.0 mm 1009.60 hPa langsam fallend
15:57 32.3 °C 28.7 °C 22% 23% SO 125 ° 18 km/h 40 km/h 0.0 mm 1009.30 hPa langsam fallend
16:57 30.8 °C 28.7 °C 23% 25% OSO 114 ° 19 km/h 42 km/h 0.0 mm 1008.90 hPa langsam fallend
17:57 30.0 °C 28.0 °C 26% 29% OSO 106 ° 17 km/h 36 km/h 0.0 mm 1009.10 hPa langsam fallend
18:57 28.9 °C 26.1 °C 30% 29% OSO 118 ° 18 km/h 37 km/h 0.0 mm 1009.10 hPa langsam fallend
19:57 27.2 °C 25.1 °C 29% 32% SO 132 ° 15 km/h 34 km/h 0.0 mm 1009.60 hPa langsam steigend
20:57 26.2 °C 24.0 °C 31% 36% SO 129 ° 12 km/h 23 km/h 0.0 mm 1010.10 hPa langsam steigend
21:57 25.1 °C 23.4 °C 33% 39% SO 135 ° 9 km/h 24 km/h 0.0 mm 1010.50 hPa langsam steigend
22:57 24.1 °C 22.7 °C 35% 39% SSO 163 ° 6 km/h 16 km/h 0.0 mm 1010.40 hPa langsam steigend
23:57 23.3 °C 22.0 °C 37% 41% OSO 114 ° 6 km/h 19 km/h 0.0 mm 1010.20 hPa langsam steigend
2021.05.12 00:57 22.6 °C 18.4 °C 40% 62% SW 215 ° 8 km/h 28 km/h 0.0 mm 1010.30 hPa langsam fallend
01:57 21.9 °C 17.2 °C 46% 69% SSW 193 ° 19 km/h 33 km/h 0.0 mm 1010.20 hPa langsam fallend
02:57 21.4 °C 16.8 °C 49% 72% S 185 ° 19 km/h 37 km/h 0.3 mm 1010.20 hPa gleichbleibend

 

Verlauf: letzte 24h
WIND   Windrose
(Klicke ins Bild, um den Hintergrund abzuschalten)
WIND   Windverkauf 2.5h
TEMP   Temperatur 2.5h
Druck   Luftdruck 2.5h
Regen   Luftdruck 2.5h